sensor_id;sensor_type;location;lat;lon;timestamp;P1;durP1;ratioP1;P2;durP2;ratioP2
62724;SDS011;49026;52.600;4.694;2022-08-19T00:01:27;15.82;;;10.63;;
62724;SDS011;49026;52.600;4.694;2022-08-19T00:03:54;17.88;;;11.07;;
62724;SDS011;49026;52.600;4.694;2022-08-19T00:06:22;16.13;;;10.70;;
62724;SDS011;49026;52.600;4.694;2022-08-19T00:08:47;23.90;;;10.95;;
62724;SDS011;49026;52.600;4.694;2022-08-19T00:11:13;24.45;;;12.15;;
62724;SDS011;49026;52.600;4.694;2022-08-19T00:13:38;24.88;;;13.27;;
62724;SDS011;49026;52.600;4.694;2022-08-19T00:16:04;16.42;;;11.52;;
62724;SDS011;49026;52.600;4.694;2022-08-19T00:18:31;19.52;;;11.90;;
62724;SDS011;49026;52.600;4.694;2022-08-19T00:20:58;21.30;;;11.05;;
62724;SDS011;49026;52.600;4.694;2022-08-19T00:23:24;23.45;;;12.20;;
62724;SDS011;49026;52.600;4.694;2022-08-19T00:25:50;19.50;;;11.65;;
62724;SDS011;49026;52.600;4.694;2022-08-19T00:28:17;21.85;;;12.18;;
62724;SDS011;49026;52.600;4.694;2022-08-19T00:30:45;21.70;;;11.52;;
62724;SDS011;49026;52.600;4.694;2022-08-19T00:33:11;24.98;;;11.45;;
62724;SDS011;49026;52.600;4.694;2022-08-19T00:35:36;25.75;;;12.10;;
62724;SDS011;49026;52.600;4.694;2022-08-19T00:38:03;17.10;;;11.00;;
62724;SDS011;49026;52.600;4.694;2022-08-19T00:40:31;24.27;;;12.07;;
62724;SDS011;49026;52.600;4.694;2022-08-19T00:42:56;16.70;;;11.25;;
62724;SDS011;49026;52.600;4.694;2022-08-19T00:45:23;19.77;;;11.18;;
62724;SDS011;49026;52.600;4.694;2022-08-19T00:47:50;25.40;;;12.68;;
62724;SDS011;49026;52.600;4.694;2022-08-19T00:50:16;21.70;;;12.15;;
62724;SDS011;49026;52.600;4.694;2022-08-19T00:52:45;17.58;;;11.70;;
62724;SDS011;49026;52.600;4.694;2022-08-19T00:55:18;23.63;;;11.90;;
62724;SDS011;49026;52.600;4.694;2022-08-19T00:57:47;20.52;;;11.65;;
62724;SDS011;49026;52.600;4.694;2022-08-19T01:00:18;19.90;;;11.75;;
62724;SDS011;49026;52.600;4.694;2022-08-19T01:02:44;17.38;;;11.48;;
62724;SDS011;49026;52.600;4.694;2022-08-19T01:05:11;22.23;;;11.43;;
62724;SDS011;49026;52.600;4.694;2022-08-19T01:07:40;23.70;;;11.82;;
62724;SDS011;49026;52.600;4.694;2022-08-19T01:10:07;19.50;;;11.82;;
62724;SDS011;49026;52.600;4.694;2022-08-19T01:12:36;25.25;;;13.13;;
62724;SDS011;49026;52.600;4.694;2022-08-19T01:15:03;34.63;;;13.93;;
62724;SDS011;49026;52.600;4.694;2022-08-19T01:17:33;28.33;;;13.45;;
62724;SDS011;49026;52.600;4.694;2022-08-19T01:20:01;24.30;;;12.68;;
62724;SDS011;49026;52.600;4.694;2022-08-19T01:22:30;22.02;;;12.65;;
62724;SDS011;49026;52.600;4.694;2022-08-19T01:24:59;18.85;;;11.15;;
62724;SDS011;49026;52.600;4.694;2022-08-19T01:27:36;19.65;;;11.55;;
62724;SDS011;49026;52.600;4.694;2022-08-19T01:30:03;20.33;;;12.07;;
62724;SDS011;49026;52.600;4.694;2022-08-19T01:32:30;22.00;;;12.32;;
62724;SDS011;49026;52.600;4.694;2022-08-19T01:34:56;21.40;;;11.32;;
62724;SDS011;49026;52.600;4.694;2022-08-19T01:37:21;19.90;;;11.50;;
62724;SDS011;49026;52.600;4.694;2022-08-19T01:39:46;21.77;;;12.40;;
62724;SDS011;49026;52.600;4.694;2022-08-19T01:42:14;21.40;;;12.98;;
62724;SDS011;49026;52.600;4.694;2022-08-19T01:44:39;19.45;;;11.43;;
62724;SDS011;49026;52.600;4.694;2022-08-19T01:47:06;21.60;;;11.52;;
62724;SDS011;49026;52.600;4.694;2022-08-19T01:49:34;22.73;;;12.02;;
62724;SDS011;49026;52.600;4.694;2022-08-19T01:52:02;25.80;;;13.40;;
62724;SDS011;49026;52.600;4.694;2022-08-19T01:54:32;23.33;;;12.43;;
62724;SDS011;49026;52.600;4.694;2022-08-19T01:57:04;28.25;;;13.38;;
62724;SDS011;49026;52.600;4.694;2022-08-19T01:59:34;25.58;;;13.18;;
62724;SDS011;49026;52.600;4.694;2022-08-19T02:02:01;26.02;;;12.70;;
62724;SDS011;49026;52.600;4.694;2022-08-19T02:04:31;28.33;;;13.43;;
62724;SDS011;49026;52.600;4.694;2022-08-19T02:06:57;24.70;;;13.52;;
62724;SDS011;49026;52.600;4.694;2022-08-19T02:09:22;30.73;;;14.02;;
62724;SDS011;49026;52.600;4.694;2022-08-19T02:11:51;31.02;;;13.48;;
62724;SDS011;49026;52.600;4.694;2022-08-19T02:14:16;25.42;;;13.73;;
62724;SDS011;49026;52.600;4.694;2022-08-19T02:16:41;34.88;;;15.02;;
62724;SDS011;49026;52.600;4.694;2022-08-19T02:19:06;37.50;;;15.82;;
62724;SDS011;49026;52.600;4.694;2022-08-19T02:21:35;31.20;;;14.75;;
62724;SDS011;49026;52.600;4.694;2022-08-19T02:24:00;41.50;;;17.02;;
62724;SDS011;49026;52.600;4.694;2022-08-19T02:26:26;38.88;;;16.58;;
62724;SDS011;49026;52.600;4.694;2022-08-19T02:28:52;33.05;;;16.00;;
62724;SDS011;49026;52.600;4.694;2022-08-19T02:31:21;32.95;;;15.20;;
62724;SDS011;49026;52.600;4.694;2022-08-19T02:33:48;44.05;;;18.23;;
62724;SDS011;49026;52.600;4.694;2022-08-19T02:36:15;43.92;;;17.80;;
62724;SDS011;49026;52.600;4.694;2022-08-19T02:38:47;44.13;;;18.10;;
62724;SDS011;49026;52.600;4.694;2022-08-19T02:41:14;50.08;;;20.10;;
62724;SDS011;49026;52.600;4.694;2022-08-19T02:43:41;55.80;;;20.02;;
62724;SDS011;49026;52.600;4.694;2022-08-19T02:46:14;46.92;;;18.98;;
62724;SDS011;49026;52.600;4.694;2022-08-19T02:48:46;51.63;;;20.63;;
62724;SDS011;49026;52.600;4.694;2022-08-19T02:51:17;51.83;;;21.30;;
62724;SDS011;49026;52.600;4.694;2022-08-19T02:53:47;55.75;;;22.20;;
62724;SDS011;49026;52.600;4.694;2022-08-19T02:56:12;56.70;;;22.42;;
62724;SDS011;49026;52.600;4.694;2022-08-19T02:58:41;65.75;;;22.60;;
62724;SDS011;49026;52.600;4.694;2022-08-19T03:01:08;59.72;;;25.08;;
62724;SDS011;49026;52.600;4.694;2022-08-19T03:03:35;64.72;;;23.15;;
62724;SDS011;49026;52.600;4.694;2022-08-19T03:06:07;61.92;;;23.80;;
62724;SDS011;49026;52.600;4.694;2022-08-19T03:08:38;46.58;;;21.25;;
62724;SDS011;49026;52.600;4.694;2022-08-19T03:11:25;38.38;;;18.10;;
62724;SDS011;49026;52.600;4.694;2022-08-19T03:13:53;40.35;;;18.80;;
62724;SDS011;49026;52.600;4.694;2022-08-19T03:16:19;40.70;;;18.85;;
62724;SDS011;49026;52.600;4.694;2022-08-19T03:18:46;44.38;;;21.13;;
62724;SDS011;49026;52.600;4.694;2022-08-19T03:21:16;49.35;;;21.75;;
62724;SDS011;49026;52.600;4.694;2022-08-19T03:23:42;45.35;;;21.05;;
62724;SDS011;49026;52.600;4.694;2022-08-19T03:26:08;57.92;;;22.85;;
62724;SDS011;49026;52.600;4.694;2022-08-19T03:28:35;56.00;;;21.10;;
62724;SDS011;49026;52.600;4.694;2022-08-19T03:31:02;51.83;;;21.88;;
62724;SDS011;49026;52.600;4.694;2022-08-19T03:33:30;50.65;;;21.55;;
62724;SDS011;49026;52.600;4.694;2022-08-19T03:36:10;57.03;;;22.88;;
62724;SDS011;49026;52.600;4.694;2022-08-19T03:38:38;58.03;;;23.52;;
62724;SDS011;49026;52.600;4.694;2022-08-19T03:41:06;52.83;;;21.85;;
62724;SDS011;49026;52.600;4.694;2022-08-19T03:43:35;48.15;;;19.85;;
62724;SDS011;49026;52.600;4.694;2022-08-19T03:46:07;53.83;;;21.23;;
62724;SDS011;49026;52.600;4.694;2022-08-19T03:48:38;46.30;;;19.40;;
62724;SDS011;49026;52.600;4.694;2022-08-19T03:51:05;47.88;;;21.15;;
62724;SDS011;49026;52.600;4.694;2022-08-19T03:53:31;52.83;;;22.75;;
62724;SDS011;49026;52.600;4.694;2022-08-19T03:55:58;62.67;;;23.77;;
62724;SDS011;49026;52.600;4.694;2022-08-19T03:58:29;55.25;;;23.45;;
62724;SDS011;49026;52.600;4.694;2022-08-19T04:00:55;53.35;;;22.85;;
62724;SDS011;49026;52.600;4.694;2022-08-19T04:03:22;57.20;;;23.23;;
62724;SDS011;49026;52.600;4.694;2022-08-19T04:05:48;56.53;;;22.73;;
62724;SDS011;49026;52.600;4.694;2022-08-19T04:08:13;59.83;;;21.95;;
62724;SDS011;49026;52.600;4.694;2022-08-19T04:10:46;58.35;;;24.05;;
62724;SDS011;49026;52.600;4.694;2022-08-19T04:13:12;64.13;;;24.65;;
62724;SDS011;49026;52.600;4.694;2022-08-19T04:15:38;62.83;;;23.65;;
62724;SDS011;49026;52.600;4.694;2022-08-19T04:18:07;63.55;;;25.17;;
62724;SDS011;49026;52.600;4.694;2022-08-19T04:20:41;59.95;;;25.25;;
62724;SDS011;49026;52.600;4.694;2022-08-19T04:23:10;81.72;;;29.55;;
62724;SDS011;49026;52.600;4.694;2022-08-19T04:25:38;82.53;;;29.58;;
62724;SDS011;49026;52.600;4.694;2022-08-19T04:28:05;85.50;;;29.85;;
62724;SDS011;49026;52.600;4.694;2022-08-19T04:30:36;92.25;;;31.02;;
62724;SDS011;49026;52.600;4.694;2022-08-19T04:33:04;87.50;;;29.67;;
62724;SDS011;49026;52.600;4.694;2022-08-19T04:35:34;78.82;;;28.67;;
62724;SDS011;49026;52.600;4.694;2022-08-19T04:38:03;80.25;;;29.17;;
62724;SDS011;49026;52.600;4.694;2022-08-19T04:40:29;83.35;;;29.83;;
62724;SDS011;49026;52.600;4.694;2022-08-19T04:43:15;77.53;;;28.33;;
62724;SDS011;49026;52.600;4.694;2022-08-19T04:45:44;76.40;;;28.55;;
62724;SDS011;49026;52.600;4.694;2022-08-19T04:48:11;81.72;;;29.45;;
62724;SDS011;49026;52.600;4.694;2022-08-19T04:50:39;87.85;;;31.15;;
62724;SDS011;49026;52.600;4.694;2022-08-19T04:53:07;91.00;;;31.50;;
62724;SDS011;49026;52.600;4.694;2022-08-19T04:55:37;82.22;;;30.65;;
62724;SDS011;49026;52.600;4.694;2022-08-19T04:58:03;90.88;;;30.15;;
62724;SDS011;49026;52.600;4.694;2022-08-19T05:00:29;79.55;;;30.20;;
62724;SDS011;49026;52.600;4.694;2022-08-19T05:02:54;71.63;;;30.35;;
62724;SDS011;49026;52.600;4.694;2022-08-19T05:05:19;77.15;;;29.80;;
62724;SDS011;49026;52.600;4.694;2022-08-19T05:07:45;71.88;;;30.63;;
62724;SDS011;49026;52.600;4.694;2022-08-19T05:10:11;64.43;;;28.58;;
62724;SDS011;49026;52.600;4.694;2022-08-19T05:12:37;66.65;;;29.95;;
62724;SDS011;49026;52.600;4.694;2022-08-19T05:15:03;63.22;;;29.00;;
62724;SDS011;49026;52.600;4.694;2022-08-19T05:17:30;55.75;;;26.73;;
62724;SDS011;49026;52.600;4.694;2022-08-19T05:19:55;51.88;;;25.85;;
62724;SDS011;49026;52.600;4.694;2022-08-19T05:22:41;45.65;;;24.73;;
62724;SDS011;49026;52.600;4.694;2022-08-19T05:25:10;38.90;;;23.58;;
62724;SDS011;49026;52.600;4.694;2022-08-19T05:27:41;41.60;;;23.05;;
62724;SDS011;49026;52.600;4.694;2022-08-19T05:30:10;42.25;;;23.33;;
62724;SDS011;49026;52.600;4.694;2022-08-19T05:32:37;34.72;;;22.83;;
62724;SDS011;49026;52.600;4.694;2022-08-19T05:35:07;37.63;;;22.50;;
62724;SDS011;49026;52.600;4.694;2022-08-19T05:37:33;40.25;;;23.02;;
62724;SDS011;49026;52.600;4.694;2022-08-19T05:39:58;42.10;;;22.02;;
62724;SDS011;49026;52.600;4.694;2022-08-19T05:42:23;37.28;;;21.48;;
62724;SDS011;49026;52.600;4.694;2022-08-19T05:44:51;37.22;;;21.67;;
62724;SDS011;49026;52.600;4.694;2022-08-19T05:47:17;35.22;;;20.55;;
62724;SDS011;49026;52.600;4.694;2022-08-19T05:49:44;39.70;;;20.15;;
62724;SDS011;49026;52.600;4.694;2022-08-19T05:52:13;37.10;;;19.77;;
62724;SDS011;49026;52.600;4.694;2022-08-19T05:54:40;29.98;;;18.20;;
62724;SDS011;49026;52.600;4.694;2022-08-19T05:57:12;30.73;;;17.92;;
62724;SDS011;49026;52.600;4.694;2022-08-19T05:59:38;31.30;;;18.42;;
62724;SDS011;49026;52.600;4.694;2022-08-19T06:02:04;33.85;;;18.17;;
62724;SDS011;49026;52.600;4.694;2022-08-19T06:04:31;30.33;;;18.33;;
62724;SDS011;49026;52.600;4.694;2022-08-19T06:06:56;28.40;;;18.35;;
62724;SDS011;49026;52.600;4.694;2022-08-19T06:09:23;29.52;;;18.10;;
62724;SDS011;49026;52.600;4.694;2022-08-19T06:14:19;26.80;;;17.13;;
62724;SDS011;49026;52.600;4.694;2022-08-19T06:16:48;27.90;;;17.30;;
62724;SDS011;49026;52.600;4.694;2022-08-19T06:19:14;25.05;;;16.55;;
62724;SDS011;49026;52.600;4.694;2022-08-19T06:21:42;25.52;;;16.30;;
62724;SDS011;49026;52.600;4.694;2022-08-19T06:24:10;25.83;;;17.17;;
62724;SDS011;49026;52.600;4.694;2022-08-19T06:26:39;23.98;;;16.60;;
62724;SDS011;49026;52.600;4.694;2022-08-19T06:29:07;28.30;;;16.53;;
62724;SDS011;49026;52.600;4.694;2022-08-19T06:31:34;30.42;;;16.55;;
62724;SDS011;49026;52.600;4.694;2022-08-19T06:34:01;28.83;;;17.20;;
62724;SDS011;49026;52.600;4.694;2022-08-19T06:38:59;25.13;;;14.68;;
62724;SDS011;49026;52.600;4.694;2022-08-19T06:41:26;28.15;;;15.88;;
62724;SDS011;49026;52.600;4.694;2022-08-19T06:43:53;21.55;;;13.95;;
62724;SDS011;49026;52.600;4.694;2022-08-19T06:46:19;23.65;;;10.85;;
62724;SDS011;49026;52.600;4.694;2022-08-19T06:48:44;16.88;;;8.52;;
62724;SDS011;49026;52.600;4.694;2022-08-19T06:51:10;22.42;;;8.05;;
62724;SDS011;49026;52.600;4.694;2022-08-19T06:53:36;22.85;;;7.45;;
62724;SDS011;49026;52.600;4.694;2022-08-19T06:56:01;19.13;;;7.38;;
62724;SDS011;49026;52.600;4.694;2022-08-19T06:58:29;15.95;;;5.90;;
62724;SDS011;49026;52.600;4.694;2022-08-19T07:01:01;15.70;;;7.45;;
62724;SDS011;49026;52.600;4.694;2022-08-19T07:03:31;13.13;;;6.50;;
62724;SDS011;49026;52.600;4.694;2022-08-19T07:06:08;17.52;;;6.82;;
62724;SDS011;49026;52.600;4.694;2022-08-19T07:08:36;14.43;;;6.20;;
62724;SDS011;49026;52.600;4.694;2022-08-19T07:11:06;15.07;;;6.25;;
62724;SDS011;49026;52.600;4.694;2022-08-19T07:13:33;12.88;;;5.75;;
62724;SDS011;49026;52.600;4.694;2022-08-19T07:16:05;15.82;;;6.35;;
62724;SDS011;49026;52.600;4.694;2022-08-19T07:18:38;14.52;;;6.00;;
62724;SDS011;49026;52.600;4.694;2022-08-19T07:21:05;18.17;;;7.05;;
62724;SDS011;49026;52.600;4.694;2022-08-19T07:23:32;10.82;;;5.90;;
62724;SDS011;49026;52.600;4.694;2022-08-19T07:25:58;13.10;;;6.47;;
62724;SDS011;49026;52.600;4.694;2022-08-19T07:28:28;14.80;;;6.13;;
62724;SDS011;49026;52.600;4.694;2022-08-19T07:30:54;10.68;;;5.78;;
62724;SDS011;49026;52.600;4.694;2022-08-19T07:33:19;13.63;;;5.38;;
62724;SDS011;49026;52.600;4.694;2022-08-19T07:35:44;10.43;;;5.60;;
62724;SDS011;49026;52.600;4.694;2022-08-19T07:38:10;15.02;;;5.68;;
62724;SDS011;49026;52.600;4.694;2022-08-19T07:40:35;11.85;;;5.55;;
62724;SDS011;49026;52.600;4.694;2022-08-19T07:43:00;11.65;;;5.60;;
62724;SDS011;49026;52.600;4.694;2022-08-19T07:45:26;13.30;;;5.68;;
62724;SDS011;49026;52.600;4.694;2022-08-19T07:47:53;13.93;;;5.35;;
62724;SDS011;49026;52.600;4.694;2022-08-19T07:50:20;16.13;;;6.07;;
62724;SDS011;49026;52.600;4.694;2022-08-19T07:52:46;17.23;;;5.72;;
62724;SDS011;49026;52.600;4.694;2022-08-19T07:55:16;14.32;;;5.35;;
62724;SDS011;49026;52.600;4.694;2022-08-19T07:57:44;17.25;;;6.30;;
62724;SDS011;49026;52.600;4.694;2022-08-19T08:00:09;12.38;;;5.60;;
62724;SDS011;49026;52.600;4.694;2022-08-19T08:02:35;9.80;;;5.10;;
62724;SDS011;49026;52.600;4.694;2022-08-19T08:05:03;13.18;;;4.53;;
62724;SDS011;49026;52.600;4.694;2022-08-19T08:07:47;14.60;;;5.18;;
62724;SDS011;49026;52.600;4.694;2022-08-19T08:10:31;8.45;;;4.45;;
62724;SDS011;49026;52.600;4.694;2022-08-19T08:12:57;11.57;;;5.35;;
62724;SDS011;49026;52.600;4.694;2022-08-19T08:15:25;12.20;;;4.57;;
62724;SDS011;49026;52.600;4.694;2022-08-19T08:17:50;12.77;;;4.25;;
62724;SDS011;49026;52.600;4.694;2022-08-19T08:20:16;12.85;;;5.28;;
62724;SDS011;49026;52.600;4.694;2022-08-19T08:22:45;11.90;;;4.88;;
62724;SDS011;49026;52.600;4.694;2022-08-19T08:25:29;12.77;;;5.00;;
62724;SDS011;49026;52.600;4.694;2022-08-19T08:27:56;11.35;;;5.63;;
62724;SDS011;49026;52.600;4.694;2022-08-19T08:30:24;12.38;;;4.65;;
62724;SDS011;49026;52.600;4.694;2022-08-19T08:32:50;11.02;;;4.65;;
62724;SDS011;49026;52.600;4.694;2022-08-19T08:35:17;15.40;;;5.03;;
62724;SDS011;49026;52.600;4.694;2022-08-19T08:37:44;12.10;;;4.68;;
62724;SDS011;49026;52.600;4.694;2022-08-19T08:40:19;15.35;;;5.22;;
62724;SDS011;49026;52.600;4.694;2022-08-19T08:42:53;11.93;;;4.85;;
62724;SDS011;49026;52.600;4.694;2022-08-19T08:45:26;11.20;;;4.60;;
62724;SDS011;49026;52.600;4.694;2022-08-19T08:47:53;12.60;;;5.35;;
62724;SDS011;49026;52.600;4.694;2022-08-19T08:50:43;9.60;;;4.50;;
62724;SDS011;49026;52.600;4.694;2022-08-19T08:53:12;13.77;;;4.95;;
62724;SDS011;49026;52.600;4.694;2022-08-19T08:55:40;12.98;;;4.97;;
62724;SDS011;49026;52.600;4.694;2022-08-19T08:58:09;11.80;;;4.97;;
62724;SDS011;49026;52.600;4.694;2022-08-19T09:00:45;9.48;;;4.35;;
62724;SDS011;49026;52.600;4.694;2022-08-19T09:03:22;13.73;;;4.80;;
62724;SDS011;49026;52.600;4.694;2022-08-19T09:08:33;12.63;;;3.85;;
62724;SDS011;49026;52.600;4.694;2022-08-19T09:11:06;11.50;;;4.38;;
62724;SDS011;49026;52.600;4.694;2022-08-19T09:13:52;11.73;;;4.25;;
62724;SDS011;49026;52.600;4.694;2022-08-19T09:16:36;12.13;;;4.40;;
62724;SDS011;49026;52.600;4.694;2022-08-19T09:19:02;9.88;;;4.75;;
62724;SDS011;49026;52.600;4.694;2022-08-19T09:21:33;9.00;;;3.88;;
62724;SDS011;49026;52.600;4.694;2022-08-19T09:24:00;9.45;;;4.32;;
62724;SDS011;49026;52.600;4.694;2022-08-19T09:26:27;12.10;;;4.68;;
62724;SDS011;49026;52.600;4.694;2022-08-19T09:28:52;12.02;;;4.50;;
62724;SDS011;49026;52.600;4.694;2022-08-19T09:31:24;9.90;;;5.00;;
62724;SDS011;49026;52.600;4.694;2022-08-19T09:33:51;10.82;;;4.45;;
62724;SDS011;49026;52.600;4.694;2022-08-19T09:36:22;11.88;;;4.57;;
62724;SDS011;49026;52.600;4.694;2022-08-19T09:38:49;8.85;;;4.00;;
62724;SDS011;49026;52.600;4.694;2022-08-19T09:41:18;7.50;;;4.10;;
62724;SDS011;49026;52.600;4.694;2022-08-19T09:43:49;10.32;;;3.63;;
62724;SDS011;49026;52.600;4.694;2022-08-19T09:46:17;8.57;;;3.90;;
62724;SDS011;49026;52.600;4.694;2022-08-19T09:48:48;10.47;;;4.53;;
62724;SDS011;49026;52.600;4.694;2022-08-19T09:51:16;13.88;;;4.43;;
62724;SDS011;49026;52.600;4.694;2022-08-19T09:53:45;7.60;;;3.78;;
62724;SDS011;49026;52.600;4.694;2022-08-19T09:56:14;9.02;;;4.13;;
62724;SDS011;49026;52.600;4.694;2022-08-19T09:58:41;6.68;;;3.60;;
62724;SDS011;49026;52.600;4.694;2022-08-19T10:01:09;8.80;;;3.83;;
62724;SDS011;49026;52.600;4.694;2022-08-19T10:03:34;8.85;;;4.32;;
62724;SDS011;49026;52.600;4.694;2022-08-19T10:06:02;10.07;;;3.72;;
62724;SDS011;49026;52.600;4.694;2022-08-19T10:08:34;7.55;;;3.35;;
62724;SDS011;49026;52.600;4.694;2022-08-19T10:11:01;6.35;;;3.13;;
62724;SDS011;49026;52.600;4.694;2022-08-19T10:13:29;8.30;;;4.13;;
62724;SDS011;49026;52.600;4.694;2022-08-19T10:15:57;10.07;;;4.50;;
62724;SDS011;49026;52.600;4.694;2022-08-19T10:18:29;9.52;;;3.80;;
62724;SDS011;49026;52.600;4.694;2022-08-19T10:21:03;7.78;;;3.90;;
62724;SDS011;49026;52.600;4.694;2022-08-19T10:23:33;8.15;;;3.58;;
62724;SDS011;49026;52.600;4.694;2022-08-19T10:26:05;14.57;;;5.38;;
62724;SDS011;49026;52.600;4.694;2022-08-19T10:30:58;10.20;;;4.32;;
62724;SDS011;49026;52.600;4.694;2022-08-19T10:33:30;7.85;;;4.05;;
62724;SDS011;49026;52.600;4.694;2022-08-19T10:36:00;8.82;;;4.22;;
62724;SDS011;49026;52.600;4.694;2022-08-19T10:38:28;8.80;;;3.97;;
62724;SDS011;49026;52.600;4.694;2022-08-19T10:40:54;7.90;;;4.00;;
62724;SDS011;49026;52.600;4.694;2022-08-19T10:43:29;10.60;;;4.38;;
62724;SDS011;49026;52.600;4.694;2022-08-19T10:45:54;8.15;;;4.10;;
62724;SDS011;49026;52.600;4.694;2022-08-19T10:48:26;9.55;;;3.95;;
62724;SDS011;49026;52.600;4.694;2022-08-19T10:50:52;6.90;;;3.60;;
62724;SDS011;49026;52.600;4.694;2022-08-19T10:53:36;6.80;;;3.45;;
62724;SDS011;49026;52.600;4.694;2022-08-19T10:56:04;6.38;;;4.18;;
62724;SDS011;49026;52.600;4.694;2022-08-19T10:58:48;7.50;;;3.42;;
62724;SDS011;49026;52.600;4.694;2022-08-19T11:01:13;5.93;;;3.25;;
62724;SDS011;49026;52.600;4.694;2022-08-19T11:03:39;7.88;;;3.63;;
62724;SDS011;49026;52.600;4.694;2022-08-19T11:06:05;5.85;;;3.00;;
62724;SDS011;49026;52.600;4.694;2022-08-19T11:08:33;9.57;;;3.58;;
62724;SDS011;49026;52.600;4.694;2022-08-19T11:11:00;6.10;;;3.63;;
62724;SDS011;49026;52.600;4.694;2022-08-19T11:13:29;9.10;;;3.63;;
62724;SDS011;49026;52.600;4.694;2022-08-19T11:16:04;8.77;;;3.80;;
62724;SDS011;49026;52.600;4.694;2022-08-19T11:18:36;6.18;;;3.95;;
62724;SDS011;49026;52.600;4.694;2022-08-19T11:21:08;7.97;;;3.53;;
62724;SDS011;49026;52.600;4.694;2022-08-19T11:23:39;9.38;;;3.42;;
62724;SDS011;49026;52.600;4.694;2022-08-19T11:26:05;8.50;;;3.97;;
62724;SDS011;49026;52.600;4.694;2022-08-19T11:28:35;6.75;;;2.92;;
62724;SDS011;49026;52.600;4.694;2022-08-19T11:31:01;7.22;;;2.88;;
62724;SDS011;49026;52.600;4.694;2022-08-19T11:33:28;8.98;;;3.45;;
62724;SDS011;49026;52.600;4.694;2022-08-19T11:35:54;5.47;;;3.28;;
62724;SDS011;49026;52.600;4.694;2022-08-19T11:38:25;7.82;;;3.65;;
62724;SDS011;49026;52.600;4.694;2022-08-19T11:41:00;6.35;;;3.92;;
62724;SDS011;49026;52.600;4.694;2022-08-19T11:43:30;6.85;;;3.90;;
62724;SDS011;49026;52.600;4.694;2022-08-19T11:45:58;7.22;;;3.40;;
62724;SDS011;49026;52.600;4.694;2022-08-19T11:48:23;9.40;;;3.05;;
62724;SDS011;49026;52.600;4.694;2022-08-19T11:50:50;8.50;;;3.75;;
62724;SDS011;49026;52.600;4.694;2022-08-19T11:53:17;7.38;;;3.38;;
62724;SDS011;49026;52.600;4.694;2022-08-19T11:55:44;8.43;;;4.30;;
62724;SDS011;49026;52.600;4.694;2022-08-19T11:58:11;6.63;;;3.30;;
62724;SDS011;49026;52.600;4.694;2022-08-19T12:00:37;11.40;;;3.33;;
62724;SDS011;49026;52.600;4.694;2022-08-19T12:03:05;5.38;;;3.03;;
62724;SDS011;49026;52.600;4.694;2022-08-19T12:05:31;6.47;;;3.42;;
62724;SDS011;49026;52.600;4.694;2022-08-19T12:07:57;5.00;;;2.85;;
62724;SDS011;49026;52.600;4.694;2022-08-19T12:10:25;8.30;;;4.18;;
62724;SDS011;49026;52.600;4.694;2022-08-19T12:12:50;8.65;;;3.50;;
62724;SDS011;49026;52.600;4.694;2022-08-19T12:15:15;8.05;;;3.58;;
62724;SDS011;49026;52.600;4.694;2022-08-19T12:17:41;7.70;;;3.22;;
62724;SDS011;49026;52.600;4.694;2022-08-19T12:20:07;6.22;;;3.28;;
62724;SDS011;49026;52.600;4.694;2022-08-19T12:22:38;6.25;;;3.25;;
62724;SDS011;49026;52.600;4.694;2022-08-19T12:25:06;6.40;;;3.10;;
62724;SDS011;49026;52.600;4.694;2022-08-19T12:27:32;6.53;;;3.58;;
62724;SDS011;49026;52.600;4.694;2022-08-19T12:29:57;7.55;;;3.08;;
62724;SDS011;49026;52.600;4.694;2022-08-19T12:32:30;8.93;;;3.47;;
62724;SDS011;49026;52.600;4.694;2022-08-19T12:34:58;6.75;;;3.38;;
62724;SDS011;49026;52.600;4.694;2022-08-19T12:37:25;7.65;;;3.83;;
62724;SDS011;49026;52.600;4.694;2022-08-19T12:39:51;6.20;;;3.47;;
62724;SDS011;49026;52.600;4.694;2022-08-19T12:42:18;7.57;;;3.63;;
62724;SDS011;49026;52.600;4.694;2022-08-19T12:44:44;9.63;;;3.30;;
62724;SDS011;49026;52.600;4.694;2022-08-19T12:47:10;5.43;;;2.83;;
62724;SDS011;49026;52.600;4.694;2022-08-19T12:49:38;5.68;;;2.72;;
62724;SDS011;49026;52.600;4.694;2022-08-19T12:52:04;7.90;;;2.92;;
62724;SDS011;49026;52.600;4.694;2022-08-19T12:54:32;6.85;;;2.47;;
62724;SDS011;49026;52.600;4.694;2022-08-19T12:56:58;7.55;;;3.47;;
62724;SDS011;49026;52.600;4.694;2022-08-19T12:59:26;6.97;;;3.05;;
62724;SDS011;49026;52.600;4.694;2022-08-19T13:01:52;9.48;;;3.50;;
62724;SDS011;49026;52.600;4.694;2022-08-19T13:04:17;12.63;;;3.28;;
62724;SDS011;49026;52.600;4.694;2022-08-19T13:06:43;10.98;;;3.35;;
62724;SDS011;49026;52.600;4.694;2022-08-19T13:09:08;5.80;;;2.85;;
62724;SDS011;49026;52.600;4.694;2022-08-19T13:11:38;5.93;;;2.70;;
62724;SDS011;49026;52.600;4.694;2022-08-19T13:14:03;6.13;;;3.38;;
62724;SDS011;49026;52.600;4.694;2022-08-19T13:16:29;10.00;;;3.55;;
62724;SDS011;49026;52.600;4.694;2022-08-19T13:18:55;7.20;;;3.20;;
62724;SDS011;49026;52.600;4.694;2022-08-19T13:21:23;5.35;;;2.30;;
62724;SDS011;49026;52.600;4.694;2022-08-19T13:23:50;4.90;;;2.47;;
62724;SDS011;49026;52.600;4.694;2022-08-19T13:26:19;7.70;;;1.60;;
62724;SDS011;49026;52.600;4.694;2022-08-19T13:28:45;5.55;;;2.40;;
62724;SDS011;49026;52.600;4.694;2022-08-19T13:31:50;7.78;;;3.15;;
62724;SDS011;49026;52.600;4.694;2022-08-19T13:34:47;4.65;;;2.95;;
62724;SDS011;49026;52.600;4.694;2022-08-19T13:37:13;9.65;;;2.90;;
62724;SDS011;49026;52.600;4.694;2022-08-19T13:39:38;5.00;;;2.67;;
62724;SDS011;49026;52.600;4.694;2022-08-19T13:42:04;3.40;;;2.08;;
62724;SDS011;49026;52.600;4.694;2022-08-19T13:44:31;2.72;;;1.70;;
62724;SDS011;49026;52.600;4.694;2022-08-19T13:47:05;4.80;;;1.88;;
62724;SDS011;49026;52.600;4.694;2022-08-19T13:49:32;4.50;;;2.20;;
62724;SDS011;49026;52.600;4.694;2022-08-19T13:51:59;3.88;;;2.00;;
62724;SDS011;49026;52.600;4.694;2022-08-19T13:54:24;5.15;;;1.88;;
62724;SDS011;49026;52.600;4.694;2022-08-19T13:56:53;6.30;;;2.43;;
62724;SDS011;49026;52.600;4.694;2022-08-19T13:59:18;6.00;;;2.08;;
62724;SDS011;49026;52.600;4.694;2022-08-19T14:01:46;5.30;;;2.50;;
62724;SDS011;49026;52.600;4.694;2022-08-19T14:04:11;5.18;;;2.20;;
62724;SDS011;49026;52.600;4.694;2022-08-19T14:06:37;5.68;;;2.17;;
62724;SDS011;49026;52.600;4.694;2022-08-19T14:09:02;6.23;;;2.20;;
62724;SDS011;49026;52.600;4.694;2022-08-19T14:11:28;4.13;;;2.15;;
62724;SDS011;49026;52.600;4.694;2022-08-19T14:13:54;7.45;;;2.15;;
62724;SDS011;49026;52.600;4.694;2022-08-19T14:16:21;5.40;;;2.38;;
62724;SDS011;49026;52.600;4.694;2022-08-19T14:18:47;5.13;;;1.95;;
62724;SDS011;49026;52.600;4.694;2022-08-19T14:21:16;6.93;;;1.90;;
62724;SDS011;49026;52.600;4.694;2022-08-19T14:23:45;4.72;;;1.63;;
62724;SDS011;49026;52.600;4.694;2022-08-19T14:26:11;6.80;;;2.28;;
62724;SDS011;49026;52.600;4.694;2022-08-19T14:28:39;3.88;;;1.70;;
62724;SDS011;49026;52.600;4.694;2022-08-19T14:31:09;3.90;;;2.35;;
62724;SDS011;49026;52.600;4.694;2022-08-19T14:33:40;4.03;;;1.90;;
62724;SDS011;49026;52.600;4.694;2022-08-19T14:36:05;7.75;;;2.50;;
62724;SDS011;49026;52.600;4.694;2022-08-19T14:38:35;7.57;;;2.50;;
62724;SDS011;49026;52.600;4.694;2022-08-19T14:41:05;5.15;;;2.35;;
62724;SDS011;49026;52.600;4.694;2022-08-19T14:43:42;5.05;;;2.17;;
62724;SDS011;49026;52.600;4.694;2022-08-19T14:46:11;5.65;;;2.33;;
62724;SDS011;49026;52.600;4.694;2022-08-19T14:48:37;5.65;;;1.85;;
62724;SDS011;49026;52.600;4.694;2022-08-19T14:51:03;6.95;;;1.77;;